sensor_id;sensor_type;location;lat;lon;timestamp;P1;durP1;ratioP1;P2;durP2;ratioP2
17830;SDS011;9040;51.332;12.406;2022-09-21T00:00:52;8.10;;;5.30;;
17830;SDS011;9040;51.332;12.406;2022-09-21T00:03:19;2.70;;;2.33;;
17830;SDS011;9040;51.332;12.406;2022-09-21T00:05:45;11.63;;;3.57;;
17830;SDS011;9040;51.332;12.406;2022-09-21T00:08:12;5.07;;;3.50;;
17830;SDS011;9040;51.332;12.406;2022-09-21T00:10:39;5.47;;;3.37;;
17830;SDS011;9040;51.332;12.406;2022-09-21T00:13:09;2.80;;;2.23;;
17830;SDS011;9040;51.332;12.406;2022-09-21T00:15:38;4.13;;;2.70;;
17830;SDS011;9040;51.332;12.406;2022-09-21T00:18:05;30.00;;;3.33;;
17830;SDS011;9040;51.332;12.406;2022-09-21T00:20:32;7.90;;;3.20;;
17830;SDS011;9040;51.332;12.406;2022-09-21T00:22:59;9.47;;;4.43;;
17830;SDS011;9040;51.332;12.406;2022-09-21T00:25:26;11.20;;;3.47;;
17830;SDS011;9040;51.332;12.406;2022-09-21T00:27:52;12.23;;;3.60;;
17830;SDS011;9040;51.332;12.406;2022-09-21T00:30:21;5.30;;;2.53;;
17830;SDS011;9040;51.332;12.406;2022-09-21T00:32:48;4.87;;;2.93;;
17830;SDS011;9040;51.332;12.406;2022-09-21T00:35:14;3.13;;;2.20;;
17830;SDS011;9040;51.332;12.406;2022-09-21T00:37:41;7.23;;;2.20;;
17830;SDS011;9040;51.332;12.406;2022-09-21T00:40:08;4.20;;;2.50;;
17830;SDS011;9040;51.332;12.406;2022-09-21T00:42:36;6.70;;;3.27;;
17830;SDS011;9040;51.332;12.406;2022-09-21T00:45:03;6.20;;;2.40;;
17830;SDS011;9040;51.332;12.406;2022-09-21T00:47:33;8.88;;;3.25;;
17830;SDS011;9040;51.332;12.406;2022-09-21T00:50:03;3.97;;;2.80;;
17830;SDS011;9040;51.332;12.406;2022-09-21T00:52:35;11.43;;;2.97;;
17830;SDS011;9040;51.332;12.406;2022-09-21T00:55:07;3.97;;;3.30;;
17830;SDS011;9040;51.332;12.406;2022-09-21T00:57:38;7.53;;;3.50;;
17830;SDS011;9040;51.332;12.406;2022-09-21T01:00:06;3.67;;;2.83;;
17830;SDS011;9040;51.332;12.406;2022-09-21T01:02:36;5.40;;;2.30;;
17830;SDS011;9040;51.332;12.406;2022-09-21T01:05:04;7.83;;;3.10;;
17830;SDS011;9040;51.332;12.406;2022-09-21T01:07:33;8.13;;;3.03;;
17830;SDS011;9040;51.332;12.406;2022-09-21T01:10:03;6.10;;;3.03;;
17830;SDS011;9040;51.332;12.406;2022-09-21T01:12:37;4.80;;;2.97;;
17830;SDS011;9040;51.332;12.406;2022-09-21T01:15:17;8.17;;;3.50;;
17830;SDS011;9040;51.332;12.406;2022-09-21T01:17:54;4.93;;;3.40;;
17830;SDS011;9040;51.332;12.406;2022-09-21T01:23:34;4.40;;;3.00;;
17830;SDS011;9040;51.332;12.406;2022-09-21T01:26:13;3.33;;;3.03;;
17830;SDS011;9040;51.332;12.406;2022-09-21T01:29:00;2.95;;;2.75;;
17830;SDS011;9040;51.332;12.406;2022-09-21T01:31:45;8.53;;;3.27;;
17830;SDS011;9040;51.332;12.406;2022-09-21T01:34:21;7.97;;;3.50;;
17830;SDS011;9040;51.332;12.406;2022-09-21T01:36:52;4.75;;;3.30;;
17830;SDS011;9040;51.332;12.406;2022-09-21T01:39:22;5.82;;;4.53;;
17830;SDS011;9040;51.332;12.406;2022-09-21T01:41:51;5.07;;;4.35;;
17830;SDS011;9040;51.332;12.406;2022-09-21T01:44:21;6.43;;;3.40;;
17830;SDS011;9040;51.332;12.406;2022-09-21T01:46:51;4.80;;;3.70;;
17830;SDS011;9040;51.332;12.406;2022-09-21T01:49:19;7.45;;;3.05;;
17830;SDS011;9040;51.332;12.406;2022-09-21T01:51:50;5.72;;;4.05;;
17830;SDS011;9040;51.332;12.406;2022-09-21T01:54:23;5.67;;;3.60;;
17830;SDS011;9040;51.332;12.406;2022-09-21T01:56:57;21.58;;;3.92;;
17830;SDS011;9040;51.332;12.406;2022-09-21T01:59:33;10.70;;;3.83;;
17830;SDS011;9040;51.332;12.406;2022-09-21T02:02:10;6.22;;;3.35;;
17830;SDS011;9040;51.332;12.406;2022-09-21T02:04:39;5.10;;;3.73;;
17830;SDS011;9040;51.332;12.406;2022-09-21T02:07:06;14.17;;;6.00;;
17830;SDS011;9040;51.332;12.406;2022-09-21T02:09:33;6.63;;;3.55;;
17830;SDS011;9040;51.332;12.406;2022-09-21T02:12:02;7.95;;;3.88;;
17830;SDS011;9040;51.332;12.406;2022-09-21T02:14:30;4.85;;;3.47;;
17830;SDS011;9040;51.332;12.406;2022-09-21T02:17:02;8.95;;;5.38;;
17830;SDS011;9040;51.332;12.406;2022-09-21T02:19:39;18.25;;;3.97;;
17830;SDS011;9040;51.332;12.406;2022-09-21T02:22:11;8.30;;;4.18;;
17830;SDS011;9040;51.332;12.406;2022-09-21T02:24:43;5.00;;;4.47;;
17830;SDS011;9040;51.332;12.406;2022-09-21T02:27:17;12.30;;;4.97;;
17830;SDS011;9040;51.332;12.406;2022-09-21T02:29:54;7.18;;;5.10;;
17830;SDS011;9040;51.332;12.406;2022-09-21T02:32:27;6.40;;;4.13;;
17830;SDS011;9040;51.332;12.406;2022-09-21T02:35:04;8.35;;;4.88;;
17830;SDS011;9040;51.332;12.406;2022-09-21T02:37:36;7.90;;;4.50;;
17830;SDS011;9040;51.332;12.406;2022-09-21T02:40:12;7.10;;;5.38;;
17830;SDS011;9040;51.332;12.406;2022-09-21T02:42:48;6.28;;;4.57;;
17830;SDS011;9040;51.332;12.406;2022-09-21T02:45:21;6.23;;;5.03;;
17830;SDS011;9040;51.332;12.406;2022-09-21T02:47:51;6.65;;;4.30;;
17830;SDS011;9040;51.332;12.406;2022-09-21T02:50:23;8.40;;;5.78;;
17830;SDS011;9040;51.332;12.406;2022-09-21T02:52:57;7.10;;;5.10;;
17830;SDS011;9040;51.332;12.406;2022-09-21T02:55:26;4.80;;;3.83;;
17830;SDS011;9040;51.332;12.406;2022-09-21T02:57:54;7.90;;;5.13;;
17830;SDS011;9040;51.332;12.406;2022-09-21T03:00:22;8.35;;;5.18;;
17830;SDS011;9040;51.332;12.406;2022-09-21T03:02:49;6.78;;;5.43;;
17830;SDS011;9040;51.332;12.406;2022-09-21T03:05:16;13.20;;;5.95;;
17830;SDS011;9040;51.332;12.406;2022-09-21T03:07:43;7.53;;;5.30;;
17830;SDS011;9040;51.332;12.406;2022-09-21T03:10:09;7.50;;;6.32;;
17830;SDS011;9040;51.332;12.406;2022-09-21T03:12:36;7.43;;;5.70;;
17830;SDS011;9040;51.332;12.406;2022-09-21T03:15:04;10.40;;;5.47;;
17830;SDS011;9040;51.332;12.406;2022-09-21T03:17:32;4.88;;;4.38;;
17830;SDS011;9040;51.332;12.406;2022-09-21T03:19:59;5.78;;;5.28;;
17830;SDS011;9040;51.332;12.406;2022-09-21T03:22:26;8.10;;;5.25;;
17830;SDS011;9040;51.332;12.406;2022-09-21T03:24:53;8.82;;;5.25;;
17830;SDS011;9040;51.332;12.406;2022-09-21T03:27:21;7.97;;;5.55;;
17830;SDS011;9040;51.332;12.406;2022-09-21T03:29:49;9.43;;;6.53;;
17830;SDS011;9040;51.332;12.406;2022-09-21T03:32:16;7.20;;;5.65;;
17830;SDS011;9040;51.332;12.406;2022-09-21T03:34:44;11.70;;;5.25;;
17830;SDS011;9040;51.332;12.406;2022-09-21T03:37:11;7.57;;;6.00;;
17830;SDS011;9040;51.332;12.406;2022-09-21T03:39:38;10.35;;;5.50;;
17830;SDS011;9040;51.332;12.406;2022-09-21T03:42:05;9.65;;;5.63;;
17830;SDS011;9040;51.332;12.406;2022-09-21T03:44:33;12.57;;;5.38;;
17830;SDS011;9040;51.332;12.406;2022-09-21T03:47:01;6.53;;;4.90;;
17830;SDS011;9040;51.332;12.406;2022-09-21T03:49:30;10.40;;;5.38;;
17830;SDS011;9040;51.332;12.406;2022-09-21T03:51:59;14.05;;;4.82;;
17830;SDS011;9040;51.332;12.406;2022-09-21T03:54:26;14.05;;;5.25;;
17830;SDS011;9040;51.332;12.406;2022-09-21T03:56:53;8.27;;;5.97;;
17830;SDS011;9040;51.332;12.406;2022-09-21T03:59:20;12.18;;;5.53;;
17830;SDS011;9040;51.332;12.406;2022-09-21T04:01:46;15.70;;;4.97;;
17830;SDS011;9040;51.332;12.406;2022-09-21T04:04:13;10.15;;;5.95;;
17830;SDS011;9040;51.332;12.406;2022-09-21T04:06:40;7.88;;;6.07;;
17830;SDS011;9040;51.332;12.406;2022-09-21T04:09:11;5.80;;;5.22;;
17830;SDS011;9040;51.332;12.406;2022-09-21T04:11:38;10.70;;;4.68;;
17830;SDS011;9040;51.332;12.406;2022-09-21T04:14:05;11.35;;;6.20;;
17830;SDS011;9040;51.332;12.406;2022-09-21T04:16:32;19.25;;;7.03;;
17830;SDS011;9040;51.332;12.406;2022-09-21T04:18:58;9.07;;;6.30;;
17830;SDS011;9040;51.332;12.406;2022-09-21T04:21:25;7.43;;;6.10;;
17830;SDS011;9040;51.332;12.406;2022-09-21T04:23:52;9.82;;;5.80;;
17830;SDS011;9040;51.332;12.406;2022-09-21T04:26:21;10.13;;;6.50;;
17830;SDS011;9040;51.332;12.406;2022-09-21T04:28:49;12.23;;;5.57;;
17830;SDS011;9040;51.332;12.406;2022-09-21T04:31:16;12.18;;;6.10;;
17830;SDS011;9040;51.332;12.406;2022-09-21T04:33:43;20.42;;;6.80;;
17830;SDS011;9040;51.332;12.406;2022-09-21T04:36:13;10.75;;;5.55;;
17830;SDS011;9040;51.332;12.406;2022-09-21T04:38:40;12.70;;;6.70;;
17830;SDS011;9040;51.332;12.406;2022-09-21T04:41:07;6.75;;;5.28;;
17830;SDS011;9040;51.332;12.406;2022-09-21T04:43:35;6.22;;;4.15;;
17830;SDS011;9040;51.332;12.406;2022-09-21T04:46:05;15.10;;;6.15;;
17830;SDS011;9040;51.332;12.406;2022-09-21T04:48:33;9.93;;;5.97;;
17830;SDS011;9040;51.332;12.406;2022-09-21T04:50:59;15.48;;;6.70;;
17830;SDS011;9040;51.332;12.406;2022-09-21T04:53:27;10.80;;;7.20;;
17830;SDS011;9040;51.332;12.406;2022-09-21T04:55:54;11.43;;;6.18;;
17830;SDS011;9040;51.332;12.406;2022-09-21T04:58:21;12.27;;;5.65;;
17830;SDS011;9040;51.332;12.406;2022-09-21T05:00:50;17.30;;;7.35;;
17830;SDS011;9040;51.332;12.406;2022-09-21T05:03:19;12.15;;;7.68;;
17830;SDS011;9040;51.332;12.406;2022-09-21T05:05:47;15.73;;;5.47;;
17830;SDS011;9040;51.332;12.406;2022-09-21T05:08:15;10.85;;;6.97;;
17830;SDS011;9040;51.332;12.406;2022-09-21T05:11:02;14.27;;;6.95;;
17830;SDS011;9040;51.332;12.406;2022-09-21T05:13:28;8.93;;;6.40;;
17830;SDS011;9040;51.332;12.406;2022-09-21T05:15:57;9.15;;;6.07;;
17830;SDS011;9040;51.332;12.406;2022-09-21T05:18:23;9.07;;;6.38;;
17830;SDS011;9040;51.332;12.406;2022-09-21T05:20:52;27.08;;;9.10;;
17830;SDS011;9040;51.332;12.406;2022-09-21T05:23:19;32.05;;;8.43;;
17830;SDS011;9040;51.332;12.406;2022-09-21T05:25:46;15.98;;;7.10;;
17830;SDS011;9040;51.332;12.406;2022-09-21T05:28:13;14.25;;;7.53;;
17830;SDS011;9040;51.332;12.406;2022-09-21T05:30:41;10.38;;;5.90;;
17830;SDS011;9040;51.332;12.406;2022-09-21T05:33:11;15.98;;;5.47;;
17830;SDS011;9040;51.332;12.406;2022-09-21T05:35:42;10.07;;;4.90;;
17830;SDS011;9040;51.332;12.406;2022-09-21T05:38:19;19.00;;;6.60;;
17830;SDS011;9040;51.332;12.406;2022-09-21T05:40:46;15.60;;;6.07;;
17830;SDS011;9040;51.332;12.406;2022-09-21T05:43:14;6.22;;;5.45;;
17830;SDS011;9040;51.332;12.406;2022-09-21T05:45:42;10.23;;;5.97;;
17830;SDS011;9040;51.332;12.406;2022-09-21T05:48:14;9.80;;;6.43;;
17830;SDS011;9040;51.332;12.406;2022-09-21T05:50:48;10.18;;;5.95;;
17830;SDS011;9040;51.332;12.406;2022-09-21T05:53:28;6.30;;;4.95;;
17830;SDS011;9040;51.332;12.406;2022-09-21T05:56:07;13.23;;;6.22;;
17830;SDS011;9040;51.332;12.406;2022-09-21T05:58:46;11.40;;;6.13;;
17830;SDS011;9040;51.332;12.406;2022-09-21T06:01:24;10.93;;;5.97;;
17830;SDS011;9040;51.332;12.406;2022-09-21T06:04:01;15.52;;;6.55;;
17830;SDS011;9040;51.332;12.406;2022-09-21T06:06:28;9.38;;;6.65;;
17830;SDS011;9040;51.332;12.406;2022-09-21T06:08:55;20.10;;;6.35;;
17830;SDS011;9040;51.332;12.406;2022-09-21T06:11:22;13.37;;;7.30;;
17830;SDS011;9040;51.332;12.406;2022-09-21T06:13:49;20.73;;;6.15;;
17830;SDS011;9040;51.332;12.406;2022-09-21T06:16:16;11.45;;;6.03;;
17830;SDS011;9040;51.332;12.406;2022-09-21T06:18:42;14.55;;;6.32;;
17830;SDS011;9040;51.332;12.406;2022-09-21T06:21:11;8.68;;;6.03;;
17830;SDS011;9040;51.332;12.406;2022-09-21T06:23:37;8.73;;;5.65;;
17830;SDS011;9040;51.332;12.406;2022-09-21T06:26:04;16.13;;;7.35;;
17830;SDS011;9040;51.332;12.406;2022-09-21T06:28:31;8.38;;;5.75;;
17830;SDS011;9040;51.332;12.406;2022-09-21T06:30:58;7.72;;;5.70;;
17830;SDS011;9040;51.332;12.406;2022-09-21T06:33:25;13.52;;;7.00;;
17830;SDS011;9040;51.332;12.406;2022-09-21T06:35:52;14.80;;;5.82;;
17830;SDS011;9040;51.332;12.406;2022-09-21T06:38:21;15.40;;;7.55;;
17830;SDS011;9040;51.332;12.406;2022-09-21T06:40:49;8.27;;;6.78;;
17830;SDS011;9040;51.332;12.406;2022-09-21T06:43:16;8.73;;;5.70;;
17830;SDS011;9040;51.332;12.406;2022-09-21T06:45:43;13.25;;;6.13;;
17830;SDS011;9040;51.332;12.406;2022-09-21T06:48:18;10.60;;;7.28;;
17830;SDS011;9040;51.332;12.406;2022-09-21T06:50:45;12.13;;;6.82;;
17830;SDS011;9040;51.332;12.406;2022-09-21T06:53:12;15.40;;;7.40;;
17830;SDS011;9040;51.332;12.406;2022-09-21T06:55:40;7.60;;;6.18;;
17830;SDS011;9040;51.332;12.406;2022-09-21T06:58:07;12.75;;;7.57;;
17830;SDS011;9040;51.332;12.406;2022-09-21T07:00:34;13.52;;;7.35;;
17830;SDS011;9040;51.332;12.406;2022-09-21T07:03:01;16.23;;;6.57;;
17830;SDS011;9040;51.332;12.406;2022-09-21T07:05:28;11.57;;;6.95;;
17830;SDS011;9040;51.332;12.406;2022-09-21T07:07:55;12.48;;;6.80;;
17830;SDS011;9040;51.332;12.406;2022-09-21T07:10:23;10.73;;;6.97;;
17830;SDS011;9040;51.332;12.406;2022-09-21T07:12:51;9.20;;;7.00;;
17830;SDS011;9040;51.332;12.406;2022-09-21T07:15:18;15.35;;;8.30;;
17830;SDS011;9040;51.332;12.406;2022-09-21T07:17:45;17.52;;;7.05;;
17830;SDS011;9040;51.332;12.406;2022-09-21T07:20:13;11.95;;;7.97;;
17830;SDS011;9040;51.332;12.406;2022-09-21T07:22:40;11.38;;;7.10;;
17830;SDS011;9040;51.332;12.406;2022-09-21T07:25:07;11.37;;;7.17;;
17830;SDS011;9040;51.332;12.406;2022-09-21T07:27:35;9.73;;;6.53;;
17830;SDS011;9040;51.332;12.406;2022-09-21T07:30:04;16.80;;;8.40;;
17830;SDS011;9040;51.332;12.406;2022-09-21T07:32:32;16.23;;;6.78;;
17830;SDS011;9040;51.332;12.406;2022-09-21T07:35:00;22.05;;;7.85;;
17830;SDS011;9040;51.332;12.406;2022-09-21T07:37:27;9.97;;;7.17;;
17830;SDS011;9040;51.332;12.406;2022-09-21T07:39:56;17.20;;;7.63;;
17830;SDS011;9040;51.332;12.406;2022-09-21T07:42:22;15.13;;;7.27;;
17830;SDS011;9040;51.332;12.406;2022-09-21T07:44:50;12.83;;;8.00;;
17830;SDS011;9040;51.332;12.406;2022-09-21T07:47:19;16.07;;;7.30;;
17830;SDS011;9040;51.332;12.406;2022-09-21T07:49:46;20.03;;;8.20;;
17830;SDS011;9040;51.332;12.406;2022-09-21T07:52:13;12.50;;;7.90;;
17830;SDS011;9040;51.332;12.406;2022-09-21T07:54:40;15.80;;;8.47;;
17830;SDS011;9040;51.332;12.406;2022-09-21T07:57:07;18.80;;;8.43;;
17830;SDS011;9040;51.332;12.406;2022-09-21T07:59:51;13.97;;;6.40;;
17830;SDS011;9040;51.332;12.406;2022-09-21T08:02:21;24.63;;;8.67;;
17830;SDS011;9040;51.332;12.406;2022-09-21T08:04:48;15.33;;;8.00;;
17830;SDS011;9040;51.332;12.406;2022-09-21T08:07:15;13.70;;;8.30;;
17830;SDS011;9040;51.332;12.406;2022-09-21T08:09:43;10.37;;;6.23;;
17830;SDS011;9040;51.332;12.406;2022-09-21T08:12:13;17.20;;;8.60;;
17830;SDS011;9040;51.332;12.406;2022-09-21T08:14:41;10.83;;;6.90;;
17830;SDS011;9040;51.332;12.406;2022-09-21T08:17:08;15.33;;;7.00;;
17830;SDS011;9040;51.332;12.406;2022-09-21T08:19:36;11.03;;;7.20;;
17830;SDS011;9040;51.332;12.406;2022-09-21T08:22:03;19.40;;;8.03;;
17830;SDS011;9040;51.332;12.406;2022-09-21T08:24:30;15.93;;;7.63;;
17830;SDS011;9040;51.332;12.406;2022-09-21T08:26:57;18.20;;;8.97;;
17830;SDS011;9040;51.332;12.406;2022-09-21T08:29:24;10.93;;;7.17;;
17830;SDS011;9040;51.332;12.406;2022-09-21T08:31:51;13.00;;;8.13;;
17830;SDS011;9040;51.332;12.406;2022-09-21T08:34:18;14.50;;;7.43;;
17830;SDS011;9040;51.332;12.406;2022-09-21T08:36:46;14.90;;;7.70;;
17830;SDS011;9040;51.332;12.406;2022-09-21T08:39:13;10.53;;;6.50;;
17830;SDS011;9040;51.332;12.406;2022-09-21T08:41:49;18.93;;;7.93;;
17830;SDS011;9040;51.332;12.406;2022-09-21T08:44:26;9.87;;;6.27;;
17830;SDS011;9040;51.332;12.406;2022-09-21T08:47:01;10.47;;;6.70;;
17830;SDS011;9040;51.332;12.406;2022-09-21T08:49:30;13.83;;;5.90;;
17830;SDS011;9040;51.332;12.406;2022-09-21T08:52:03;16.93;;;6.47;;
17830;SDS011;9040;51.332;12.406;2022-09-21T08:54:33;11.70;;;6.10;;
17830;SDS011;9040;51.332;12.406;2022-09-21T08:57:07;12.03;;;6.23;;
17830;SDS011;9040;51.332;12.406;2022-09-21T08:59:37;11.30;;;6.43;;
17830;SDS011;9040;51.332;12.406;2022-09-21T09:02:09;11.40;;;6.60;;
17830;SDS011;9040;51.332;12.406;2022-09-21T09:05:02;13.67;;;6.10;;
17830;SDS011;9040;51.332;12.406;2022-09-21T09:07:48;14.03;;;7.03;;
17830;SDS011;9040;51.332;12.406;2022-09-21T09:10:33;15.60;;;6.03;;
17830;SDS011;9040;51.332;12.406;2022-09-21T09:13:06;10.70;;;7.13;;
17830;SDS011;9040;51.332;12.406;2022-09-21T09:15:54;15.00;;;6.20;;
17830;SDS011;9040;51.332;12.406;2022-09-21T09:18:31;6.00;;;5.40;;
17830;SDS011;9040;51.332;12.406;2022-09-21T09:21:05;13.90;;;5.97;;
17830;SDS011;9040;51.332;12.406;2022-09-21T09:23:39;15.70;;;5.90;;
17830;SDS011;9040;51.332;12.406;2022-09-21T09:26:13;15.00;;;5.63;;
17830;SDS011;9040;51.332;12.406;2022-09-21T09:28:45;7.70;;;5.40;;
17830;SDS011;9040;51.332;12.406;2022-09-21T09:31:17;7.13;;;5.00;;
17830;SDS011;9040;51.332;12.406;2022-09-21T09:33:49;8.80;;;5.73;;
17830;SDS011;9040;51.332;12.406;2022-09-21T09:36:21;17.17;;;5.90;;
17830;SDS011;9040;51.332;12.406;2022-09-21T09:38:54;12.90;;;4.77;;
17830;SDS011;9040;51.332;12.406;2022-09-21T09:41:37;13.03;;;4.53;;
17830;SDS011;9040;51.332;12.406;2022-09-21T09:44:20;10.00;;;4.87;;
17830;SDS011;9040;51.332;12.406;2022-09-21T09:46:57;8.27;;;4.97;;
17830;SDS011;9040;51.332;12.406;2022-09-21T09:49:36;9.27;;;5.20;;
17830;SDS011;9040;51.332;12.406;2022-09-21T09:52:14;12.77;;;5.00;;
17830;SDS011;9040;51.332;12.406;2022-09-21T09:54:43;7.00;;;3.93;;
17830;SDS011;9040;51.332;12.406;2022-09-21T09:57:10;12.70;;;4.77;;
17830;SDS011;9040;51.332;12.406;2022-09-21T09:59:40;11.30;;;4.93;;
17830;SDS011;9040;51.332;12.406;2022-09-21T10:02:17;8.70;;;4.43;;
17830;SDS011;9040;51.332;12.406;2022-09-21T10:04:53;13.90;;;3.53;;
17830;SDS011;9040;51.332;12.406;2022-09-21T10:07:34;16.57;;;4.30;;
17830;SDS011;9040;51.332;12.406;2022-09-21T10:10:04;10.73;;;4.00;;
17830;SDS011;9040;51.332;12.406;2022-09-21T10:12:49;13.00;;;4.20;;
17830;SDS011;9040;51.332;12.406;2022-09-21T10:15:17;6.60;;;2.73;;
17830;SDS011;9040;51.332;12.406;2022-09-21T10:17:44;2.83;;;1.90;;
17830;SDS011;9040;51.332;12.406;2022-09-21T10:20:13;5.37;;;2.33;;
17830;SDS011;9040;51.332;12.406;2022-09-21T10:22:44;7.80;;;2.57;;
17830;SDS011;9040;51.332;12.406;2022-09-21T10:25:15;8.67;;;3.20;;
17830;SDS011;9040;51.332;12.406;2022-09-21T10:27:45;6.63;;;0.90;;
17830;SDS011;9040;51.332;12.406;2022-09-21T10:30:30;13.40;;;1.50;;
17830;SDS011;9040;51.332;12.406;2022-09-21T10:32:59;5.27;;;2.50;;
17830;SDS011;9040;51.332;12.406;2022-09-21T10:35:26;12.33;;;2.30;;
17830;SDS011;9040;51.332;12.406;2022-09-21T10:38:07;6.07;;;1.93;;
17830;SDS011;9040;51.332;12.406;2022-09-21T10:40:37;6.03;;;1.73;;
17830;SDS011;9040;51.332;12.406;2022-09-21T10:43:05;12.63;;;2.23;;
17830;SDS011;9040;51.332;12.406;2022-09-21T10:45:51;14.70;;;2.40;;
17830;SDS011;9040;51.332;12.406;2022-09-21T10:48:20;7.00;;;2.87;;
17830;SDS011;9040;51.332;12.406;2022-09-21T10:50:48;8.73;;;2.27;;
17830;SDS011;9040;51.332;12.406;2022-09-21T10:53:18;4.10;;;1.60;;
17830;SDS011;9040;51.332;12.406;2022-09-21T10:55:54;3.17;;;1.67;;
17830;SDS011;9040;51.332;12.406;2022-09-21T10:58:23;1.63;;;1.23;;
17830;SDS011;9040;51.332;12.406;2022-09-21T11:00:51;6.27;;;1.30;;
17830;SDS011;9040;51.332;12.406;2022-09-21T11:03:35;5.23;;;0.90;;
17830;SDS011;9040;51.332;12.406;2022-09-21T11:06:10;4.60;;;1.10;;
17830;SDS011;9040;51.332;12.406;2022-09-21T11:08:44;1.37;;;0.70;;
17830;SDS011;9040;51.332;12.406;2022-09-21T11:11:28;5.13;;;0.80;;
17830;SDS011;9040;51.332;12.406;2022-09-21T11:14:03;4.20;;;0.93;;
17830;SDS011;9040;51.332;12.406;2022-09-21T11:16:38;5.07;;;0.80;;
17830;SDS011;9040;51.332;12.406;2022-09-21T11:19:10;2.03;;;0.93;;
17830;SDS011;9040;51.332;12.406;2022-09-21T11:21:46;10.87;;;2.17;;
17830;SDS011;9040;51.332;12.406;2022-09-21T11:24:19;15.03;;;1.50;;
17830;SDS011;9040;51.332;12.406;2022-09-21T11:26:54;1.23;;;1.13;;
17830;SDS011;9040;51.332;12.406;2022-09-21T11:29:26;1.47;;;1.07;;
17830;SDS011;9040;51.332;12.406;2022-09-21T11:32:05;9.20;;;1.30;;
17830;SDS011;9040;51.332;12.406;2022-09-21T11:34:52;5.70;;;0.93;;
17830;SDS011;9040;51.332;12.406;2022-09-21T11:37:35;1.83;;;1.10;;
17830;SDS011;9040;51.332;12.406;2022-09-21T11:40:19;4.80;;;1.60;;
17830;SDS011;9040;51.332;12.406;2022-09-21T11:43:02;6.20;;;1.50;;
17830;SDS011;9040;51.332;12.406;2022-09-21T11:45:41;10.93;;;1.83;;
17830;SDS011;9040;51.332;12.406;2022-09-21T11:48:22;3.80;;;1.30;;
17830;SDS011;9040;51.332;12.406;2022-09-21T11:51:04;2.50;;;1.33;;
17830;SDS011;9040;51.332;12.406;2022-09-21T11:53:43;2.30;;;1.60;;
17830;SDS011;9040;51.332;12.406;2022-09-21T11:56:35;2.23;;;1.17;;
17830;SDS011;9040;51.332;12.406;2022-09-21T11:59:16;6.63;;;1.60;;
17830;SDS011;9040;51.332;12.406;2022-09-21T12:02:00;2.93;;;1.33;;
17830;SDS011;9040;51.332;12.406;2022-09-21T12:04:43;2.37;;;0.80;;
17830;SDS011;9040;51.332;12.406;2022-09-21T12:07:25;3.23;;;1.07;;
17830;SDS011;9040;51.332;12.406;2022-09-21T12:13:13;1.80;;;0.80;;
17830;SDS011;9040;51.332;12.406;2022-09-21T12:15:54;4.43;;;2.67;;
17830;SDS011;9040;51.332;12.406;2022-09-21T12:18:30;5.70;;;1.83;;
17830;SDS011;9040;51.332;12.406;2022-09-21T12:21:03;4.03;;;1.33;;
17830;SDS011;9040;51.332;12.406;2022-09-21T12:23:40;3.33;;;1.17;;
17830;SDS011;9040;51.332;12.406;2022-09-21T12:26:09;2.40;;;0.70;;
17830;SDS011;9040;51.332;12.406;2022-09-21T12:28:40;3.80;;;0.90;;
17830;SDS011;9040;51.332;12.406;2022-09-21T12:31:13;9.53;;;0.90;;
17830;SDS011;9040;51.332;12.406;2022-09-21T12:33:44;3.30;;;1.73;;
17830;SDS011;9040;51.332;12.406;2022-09-21T12:36:15;1.93;;;0.83;;
17830;SDS011;9040;51.332;12.406;2022-09-21T12:38:47;2.73;;;1.00;;
17830;SDS011;9040;51.332;12.406;2022-09-21T12:41:17;10.60;;;0.90;;
17830;SDS011;9040;51.332;12.406;2022-09-21T12:43:53;5.57;;;1.00;;
17830;SDS011;9040;51.332;12.406;2022-09-21T12:46:27;4.87;;;0.87;;
17830;SDS011;9040;51.332;12.406;2022-09-21T12:48:57;2.90;;;0.70;;
17830;SDS011;9040;51.332;12.406;2022-09-21T12:51:26;1.00;;;0.60;;
17830;SDS011;9040;51.332;12.406;2022-09-21T12:53:58;4.30;;;0.80;;
17830;SDS011;9040;51.332;12.406;2022-09-21T12:56:42;6.83;;;2.17;;
17830;SDS011;9040;51.332;12.406;2022-09-21T12:59:21;7.37;;;1.00;;
17830;SDS011;9040;51.332;12.406;2022-09-21T13:01:58;6.00;;;0.60;;
17830;SDS011;9040;51.332;12.406;2022-09-21T13:04:39;1.60;;;0.67;;
17830;SDS011;9040;51.332;12.406;2022-09-21T13:10:30;0.73;;;0.60;;
17830;SDS011;9040;51.332;12.406;2022-09-21T13:13:04;1.73;;;0.80;;
17830;SDS011;9040;51.332;12.406;2022-09-21T13:15:40;2.17;;;1.00;;
17830;SDS011;9040;51.332;12.406;2022-09-21T13:18:17;3.73;;;0.93;;
17830;SDS011;9040;51.332;12.406;2022-09-21T13:20:48;1.77;;;0.70;;
17830;SDS011;9040;51.332;12.406;2022-09-21T13:23:20;2.20;;;0.90;;
17830;SDS011;9040;51.332;12.406;2022-09-21T13:26:03;5.43;;;1.23;;
17830;SDS011;9040;51.332;12.406;2022-09-21T13:28:42;4.97;;;1.13;;
17830;SDS011;9040;51.332;12.406;2022-09-21T13:31:29;1.63;;;1.10;;
17830;SDS011;9040;51.332;12.406;2022-09-21T13:34:15;3.03;;;1.73;;
17830;SDS011;9040;51.332;12.406;2022-09-21T13:39:41;1.67;;;0.93;;
17830;SDS011;9040;51.332;12.406;2022-09-21T13:48:17;4.77;;;1.13;;
17830;SDS011;9040;51.332;12.406;2022-09-21T13:50:50;2.20;;;1.03;;
17830;SDS011;9040;51.332;12.406;2022-09-21T13:53:22;4.00;;;1.30;;
17830;SDS011;9040;51.332;12.406;2022-09-21T13:55:52;2.03;;;1.10;;
17830;SDS011;9040;51.332;12.406;2022-09-21T13:58:25;4.20;;;1.20;;
17830;SDS011;9040;51.332;12.406;2022-09-21T14:00:56;2.50;;;1.10;;
17830;SDS011;9040;51.332;12.406;2022-09-21T14:03:26;2.03;;;0.90;;
17830;SDS011;9040;51.332;12.406;2022-09-21T14:06:04;2.40;;;0.90;;
17830;SDS011;9040;51.332;12.406;2022-09-21T14:08:34;1.93;;;1.17;;
17830;SDS011;9040;51.332;12.406;2022-09-21T14:11:03;1.33;;;0.80;;
17830;SDS011;9040;51.332;12.406;2022-09-21T14:13:34;2.00;;;0.70;;
17830;SDS011;9040;51.332;12.406;2022-09-21T14:22:32;1.47;;;0.70;;
17830;SDS011;9040;51.332;12.406;2022-09-21T14:28:15;1.10;;;0.80;;
17830;SDS011;9040;51.332;12.406;2022-09-21T14:30:47;2.87;;;1.00;;
17830;SDS011;9040;51.332;12.406;2022-09-21T14:33:26;5.40;;;0.70;;
17830;SDS011;9040;51.332;12.406;2022-09-21T14:35:57;0.93;;;0.57;;
17830;SDS011;9040;51.332;12.406;2022-09-21T14:38:30;2.33;;;0.70;;
17830;SDS011;9040;51.332;12.406;2022-09-21T14:41:06;0.90;;;0.70;;
17830;SDS011;9040;51.332;12.406;2022-09-21T14:43:33;1.03;;;0.60;;
17830;SDS011;9040;51.332;12.406;2022-09-21T14:46:25;1.57;;;0.73;;
17830;SDS011;9040;51.332;12.406;2022-09-21T14:49:16;6.53;;;1.33;;
17830;SDS011;9040;51.332;12.406;2022-09-21T14:51:55;2.97;;;1.13;;
17830;SDS011;9040;51.332;12.406;2022-09-21T14:54:36;2.93;;;0.80;;
17830;SDS011;9040;51.332;12.406;2022-09-21T14:57:20;2.43;;;0.63;;
17830;SDS011;9040;51.332;12.406;2022-09-21T15:00:10;5.40;;;0.80;;
17830;SDS011;9040;51.332;12.406;2022-09-21T15:02:45;1.63;;;0.70;;
17830;SDS011;9040;51.332;12.406;2022-09-21T15:05:17;2.90;;;0.90;;
17830;SDS011;9040;51.332;12.406;2022-09-21T15:07:51;1.73;;;0.70;;
17830;SDS011;9040;51.332;12.406;2022-09-21T15:10:52;1.67;;;0.90;;
17830;SDS011;9040;51.332;12.406;2022-09-21T15:16:37;1.50;;;0.83;;
17830;SDS011;9040;51.332;12.406;2022-09-21T15:19:13;3.50;;;0.63;;
17830;SDS011;9040;51.332;12.406;2022-09-21T15:21:46;5.47;;;1.10;;
17830;SDS011;9040;51.332;12.406;2022-09-21T15:24:18;2.10;;;1.07;;
17830;SDS011;9040;51.332;12.406;2022-09-21T15:26:48;1.87;;;0.90;;
17830;SDS011;9040;51.332;12.406;2022-09-21T15:29:19;7.60;;;1.10;;
17830;SDS011;9040;51.332;12.406;2022-09-21T15:31:50;1.13;;;0.63;;
17830;SDS011;9040;51.332;12.406;2022-09-21T15:34:18;3.00;;;0.80;;
17830;SDS011;9040;51.332;12.406;2022-09-21T15:36:45;3.57;;;1.30;;
17830;SDS011;9040;51.332;12.406;2022-09-21T15:39:22;0.70;;;0.70;;
17830;SDS011;9040;51.332;12.406;2022-09-21T15:41:55;1.10;;;0.80;;